sensor_id;sensor_type;location;lat;lon;timestamp;pressure;altitude;pressure_sealevel;temperature;humidity
5952;BME280;3001;42.622;23.194;2023-08-01T00:00:11;91108.59;;;21.07;90.19
5952;BME280;3001;42.622;23.194;2023-08-01T00:02:38;91119.97;;;21.14;89.88
5952;BME280;3001;42.622;23.194;2023-08-01T00:05:08;91112.69;;;20.97;90.71
5952;BME280;3001;42.622;23.194;2023-08-01T00:07:35;91121.78;;;21.03;90.46
5952;BME280;3001;42.622;23.194;2023-08-01T00:10:01;91114.59;;;21.00;90.09
5952;BME280;3001;42.622;23.194;2023-08-01T00:12:28;91121.56;;;20.79;90.78
5952;BME280;3001;42.622;23.194;2023-08-01T00:14:57;91116.47;;;20.53;92.20
5952;BME280;3001;42.622;23.194;2023-08-01T00:17:23;91115.63;;;20.85;90.67
5952;BME280;3001;42.622;23.194;2023-08-01T00:19:50;91112.53;;;20.80;90.52
5952;BME280;3001;42.622;23.194;2023-08-01T00:22:17;91109.50;;;20.81;90.08
5952;BME280;3001;42.622;23.194;2023-08-01T00:24:43;91114.75;;;20.74;90.23
5952;BME280;3001;42.622;23.194;2023-08-01T00:27:12;91107.13;;;20.66;90.48
5952;BME280;3001;42.622;23.194;2023-08-01T00:29:39;91116.59;;;20.70;90.69
5952;BME280;3001;42.622;23.194;2023-08-01T00:32:08;91108.84;;;20.44;91.81
5952;BME280;3001;42.622;23.194;2023-08-01T00:34:34;91109.59;;;20.45;91.85
5952;BME280;3001;42.622;23.194;2023-08-01T00:37:01;91115.44;;;20.64;90.76
5952;BME280;3001;42.622;23.194;2023-08-01T00:39:28;91118.44;;;20.63;90.63
5952;BME280;3001;42.622;23.194;2023-08-01T00:41:54;91117.06;;;20.39;91.27
5952;BME280;3001;42.622;23.194;2023-08-01T00:44:21;91114.72;;;20.27;91.78
5952;BME280;3001;42.622;23.194;2023-08-01T00:46:48;91110.72;;;20.44;91.29
5952;BME280;3001;42.622;23.194;2023-08-01T00:49:16;91109.34;;;20.20;91.99
5952;BME280;3001;42.622;23.194;2023-08-01T00:51:43;91112.66;;;20.10;91.89
5952;BME280;3001;42.622;23.194;2023-08-01T00:54:10;91112.31;;;20.15;91.94
5952;BME280;3001;42.622;23.194;2023-08-01T00:56:37;91102.09;;;20.10;92.01
5952;BME280;3001;42.622;23.194;2023-08-01T00:59:05;91100.59;;;20.09;91.64
5952;BME280;3001;42.622;23.194;2023-08-01T01:01:31;91098.41;;;20.15;91.42
5952;BME280;3001;42.622;23.194;2023-08-01T01:03:58;91099.13;;;20.15;91.33
5952;BME280;3001;42.622;23.194;2023-08-01T01:06:29;91100.66;;;20.16;91.03
5952;BME280;3001;42.622;23.194;2023-08-01T01:08:56;91103.28;;;20.13;91.75
5952;BME280;3001;42.622;23.194;2023-08-01T01:11:23;91096.78;;;20.07;92.12
5952;BME280;3001;42.622;23.194;2023-08-01T01:13:50;91088.59;;;20.15;91.67
5952;BME280;3001;42.622;23.194;2023-08-01T01:16:18;91088.34;;;20.31;90.28
5952;BME280;3001;42.622;23.194;2023-08-01T01:18:45;91084.75;;;20.09;90.88
5952;BME280;3001;42.622;23.194;2023-08-01T01:21:13;91080.69;;;20.15;91.14
5952;BME280;3001;42.622;23.194;2023-08-01T01:23:40;91081.94;;;20.32;90.59
5952;BME280;3001;42.622;23.194;2023-08-01T01:26:09;91084.81;;;20.13;90.63
5952;BME280;3001;42.622;23.194;2023-08-01T01:28:37;91085.88;;;20.48;88.69
5952;BME280;3001;42.622;23.194;2023-08-01T01:31:04;91080.34;;;20.20;89.52
5952;BME280;3001;42.622;23.194;2023-08-01T01:33:30;91074.34;;;20.67;87.84
5952;BME280;3001;42.622;23.194;2023-08-01T01:36:00;91075.53;;;20.76;87.33
5952;BME280;3001;42.622;23.194;2023-08-01T01:38:28;91079.91;;;20.58;86.94
5952;BME280;3001;42.622;23.194;2023-08-01T01:40:55;91072.63;;;20.41;88.67
5952;BME280;3001;42.622;23.194;2023-08-01T01:43:21;91079.16;;;20.14;90.15
5952;BME280;3001;42.622;23.194;2023-08-01T01:45:48;91079.16;;;20.14;90.31
5952;BME280;3001;42.622;23.194;2023-08-01T01:48:15;91084.09;;;20.19;89.42
5952;BME280;3001;42.622;23.194;2023-08-01T01:50:41;91076.91;;;20.16;89.52
5952;BME280;3001;42.622;23.194;2023-08-01T01:53:08;91089.06;;;20.24;88.72
5952;BME280;3001;42.622;23.194;2023-08-01T01:55:36;91089.06;;;19.91;89.92
5952;BME280;3001;42.622;23.194;2023-08-01T01:58:03;91085.03;;;20.01;89.75
5952;BME280;3001;42.622;23.194;2023-08-01T02:00:30;91089.00;;;19.84;90.39
5952;BME280;3001;42.622;23.194;2023-08-01T02:02:56;91092.34;;;20.14;88.98
5952;BME280;3001;42.622;23.194;2023-08-01T02:05:23;91085.69;;;20.27;88.70
5952;BME280;3001;42.622;23.194;2023-08-01T02:07:50;91078.31;;;20.07;89.44
5952;BME280;3001;42.622;23.194;2023-08-01T02:10:16;91082.22;;;19.87;89.58
5952;BME280;3001;42.622;23.194;2023-08-01T02:12:44;91079.84;;;19.42;91.89
5952;BME280;3001;42.622;23.194;2023-08-01T02:15:11;91072.91;;;19.93;90.80
5952;BME280;3001;42.622;23.194;2023-08-01T02:17:38;91070.47;;;19.77;90.99
5952;BME280;3001;42.622;23.194;2023-08-01T02:20:06;91074.06;;;19.62;91.73
5952;BME280;3001;42.622;23.194;2023-08-01T02:22:32;91075.50;;;19.56;91.76
5952;BME280;3001;42.622;23.194;2023-08-01T02:24:59;91074.34;;;19.54;91.25
5952;BME280;3001;42.622;23.194;2023-08-01T02:27:26;91074.88;;;19.70;90.60
5952;BME280;3001;42.622;23.194;2023-08-01T02:29:54;91078.69;;;19.72;90.22
5952;BME280;3001;42.622;23.194;2023-08-01T02:32:20;91073.81;;;19.74;89.68
5952;BME280;3001;42.622;23.194;2023-08-01T02:34:47;91076.66;;;19.92;89.02
5952;BME280;3001;42.622;23.194;2023-08-01T02:37:14;91073.53;;;20.19;87.62
5952;BME280;3001;42.622;23.194;2023-08-01T02:39:40;91080.75;;;20.22;87.38
5952;BME280;3001;42.622;23.194;2023-08-01T02:42:07;91074.97;;;19.77;88.61
5952;BME280;3001;42.622;23.194;2023-08-01T02:44:34;91078.97;;;20.00;87.48
5952;BME280;3001;42.622;23.194;2023-08-01T02:47:02;91072.31;;;20.10;87.00
5952;BME280;3001;42.622;23.194;2023-08-01T02:49:29;91061.53;;;19.85;88.26
5952;BME280;3001;42.622;23.194;2023-08-01T02:51:56;91075.72;;;20.10;87.15
5952;BME280;3001;42.622;23.194;2023-08-01T02:54:24;91083.44;;;19.60;88.57
5952;BME280;3001;42.622;23.194;2023-08-01T02:56:50;91080.69;;;19.49;88.98
5952;BME280;3001;42.622;23.194;2023-08-01T02:59:17;91081.31;;;19.39;89.93
5952;BME280;3001;42.622;23.194;2023-08-01T03:01:44;91077.03;;;19.28;90.48
5952;BME280;3001;42.622;23.194;2023-08-01T03:04:12;91083.09;;;19.06;91.46
5952;BME280;3001;42.622;23.194;2023-08-01T03:06:40;91086.09;;;19.30;90.08
5952;BME280;3001;42.622;23.194;2023-08-01T03:09:07;91081.88;;;19.55;89.68
5952;BME280;3001;42.622;23.194;2023-08-01T03:11:35;91080.53;;;19.10;91.18
5952;BME280;3001;42.622;23.194;2023-08-01T03:14:02;91081.91;;;19.00;91.02
5952;BME280;3001;42.622;23.194;2023-08-01T03:16:30;91085.19;;;18.94;91.83
5952;BME280;3001;42.622;23.194;2023-08-01T03:18:56;91086.03;;;19.27;90.84
5952;BME280;3001;42.622;23.194;2023-08-01T03:21:26;91080.69;;;19.49;89.46
5952;BME280;3001;42.622;23.194;2023-08-01T03:23:52;91081.22;;;19.32;89.85
5952;BME280;3001;42.622;23.194;2023-08-01T03:26:19;91083.31;;;19.49;89.37
5952;BME280;3001;42.622;23.194;2023-08-01T03:28:46;91082.25;;;19.25;90.18
5952;BME280;3001;42.622;23.194;2023-08-01T03:31:13;91081.31;;;19.39;89.63
5952;BME280;3001;42.622;23.194;2023-08-01T03:33:40;91084.13;;;19.24;91.00
5952;BME280;3001;42.622;23.194;2023-08-01T03:36:07;91088.59;;;19.20;91.85
5952;BME280;3001;42.622;23.194;2023-08-01T03:38:35;91093.41;;;19.44;91.24
5952;BME280;3001;42.622;23.194;2023-08-01T03:41:02;91084.31;;;19.38;91.19
5952;BME280;3001;42.622;23.194;2023-08-01T03:43:29;91092.09;;;19.60;91.12
5952;BME280;3001;42.622;23.194;2023-08-01T03:45:56;91089.25;;;19.72;89.50
5952;BME280;3001;42.622;23.194;2023-08-01T03:48:22;91087.16;;;19.88;88.25
5952;BME280;3001;42.622;23.194;2023-08-01T03:50:49;91088.78;;;19.67;89.34
5952;BME280;3001;42.622;23.194;2023-08-01T03:53:16;91088.88;;;19.74;89.76
5952;BME280;3001;42.622;23.194;2023-08-01T03:55:46;91092.59;;;19.69;89.78
5952;BME280;3001;42.622;23.194;2023-08-01T03:58:13;91100.66;;;19.83;88.96
5952;BME280;3001;42.622;23.194;2023-08-01T04:00:40;91104.72;;;19.77;90.35
5952;BME280;3001;42.622;23.194;2023-08-01T04:03:07;91108.53;;;19.80;89.29
5952;BME280;3001;42.622;23.194;2023-08-01T04:05:33;91110.31;;;19.72;89.61
5952;BME280;3001;42.622;23.194;2023-08-01T04:08:00;91102.41;;;19.72;90.35
5952;BME280;3001;42.622;23.194;2023-08-01T04:10:27;91096.91;;;19.84;89.38
5952;BME280;3001;42.622;23.194;2023-08-01T04:12:55;91102.19;;;19.88;89.45
5952;BME280;3001;42.622;23.194;2023-08-01T04:15:21;91107.69;;;19.72;90.74
5952;BME280;3001;42.622;23.194;2023-08-01T04:17:48;91100.06;;;19.97;89.93
5952;BME280;3001;42.622;23.194;2023-08-01T04:20:15;91097.03;;;19.95;89.83
5952;BME280;3001;42.622;23.194;2023-08-01T04:22:41;91090.94;;;19.91;90.12
5952;BME280;3001;42.622;23.194;2023-08-01T04:25:08;91103.66;;;19.82;91.17
5952;BME280;3001;42.622;23.194;2023-08-01T04:27:35;91100.81;;;19.97;90.81
5952;BME280;3001;42.622;23.194;2023-08-01T04:30:04;91106.59;;;20.06;90.66
5952;BME280;3001;42.622;23.194;2023-08-01T04:32:31;91098.34;;;20.11;89.89
5952;BME280;3001;42.622;23.194;2023-08-01T04:34:57;91104.84;;;20.21;89.46
5952;BME280;3001;42.622;23.194;2023-08-01T04:37:24;91097.41;;;19.97;90.53
5952;BME280;3001;42.622;23.194;2023-08-01T04:39:51;91099.28;;;19.96;90.45
5952;BME280;3001;42.622;23.194;2023-08-01T04:42:18;91098.44;;;19.85;91.38
5952;BME280;3001;42.622;23.194;2023-08-01T04:44:44;91095.31;;;19.76;91.30
5952;BME280;3001;42.622;23.194;2023-08-01T04:47:14;91092.25;;;20.04;90.35
5952;BME280;3001;42.622;23.194;2023-08-01T04:49:40;91091.22;;;20.15;90.23
5952;BME280;3001;42.622;23.194;2023-08-01T04:52:07;91085.22;;;20.15;90.50
5952;BME280;3001;42.622;23.194;2023-08-01T04:54:34;91090.47;;;20.15;90.77
5952;BME280;3001;42.622;23.194;2023-08-01T04:57:00;91088.25;;;20.17;90.73
5952;BME280;3001;42.622;23.194;2023-08-01T04:59:27;91096.59;;;20.26;90.98
5952;BME280;3001;42.622;23.194;2023-08-01T05:01:54;91090.25;;;20.30;90.32
5952;BME280;3001;42.622;23.194;2023-08-01T05:04:22;91094.25;;;20.17;90.77
5952;BME280;3001;42.622;23.194;2023-08-01T05:06:48;91088.09;;;20.03;91.63
5952;BME280;3001;42.622;23.194;2023-08-01T05:09:15;91096.06;;;20.10;91.22
5952;BME280;3001;42.622;23.194;2023-08-01T05:11:42;91093.00;;;20.04;92.08
5952;BME280;3001;42.622;23.194;2023-08-01T05:14:09;91097.19;;;20.09;92.45
5952;BME280;3001;42.622;23.194;2023-08-01T05:16:35;91099.41;;;20.03;92.63
5952;BME280;3001;42.622;23.194;2023-08-01T05:19:02;91093.13;;;20.18;92.37
5952;BME280;3001;42.622;23.194;2023-08-01T05:21:30;91101.78;;;20.15;92.93
5952;BME280;3001;42.622;23.194;2023-08-01T05:23:57;91104.50;;;20.22;92.81
5952;BME280;3001;42.622;23.194;2023-08-01T05:26:24;91105.41;;;20.40;91.97
5952;BME280;3001;42.622;23.194;2023-08-01T05:28:52;91103.28;;;20.16;93.16
5952;BME280;3001;42.622;23.194;2023-08-01T05:31:23;91102.94;;;20.18;93.53
5952;BME280;3001;42.622;23.194;2023-08-01T05:33:50;91107.81;;;20.16;94.06
5952;BME280;3001;42.622;23.194;2023-08-01T05:36:17;91099.81;;;20.09;94.90
5952;BME280;3001;42.622;23.194;2023-08-01T05:38:45;91100.75;;;20.27;94.85
5952;BME280;3001;42.622;23.194;2023-08-01T05:41:12;91104.84;;;20.21;94.67
5952;BME280;3001;42.622;23.194;2023-08-01T05:43:38;91105.78;;;20.39;93.00
5952;BME280;3001;42.622;23.194;2023-08-01T05:46:05;91105.25;;;20.23;92.96
5952;BME280;3001;42.622;23.194;2023-08-01T05:48:32;91106.13;;;20.34;91.72
5952;BME280;3001;42.622;23.194;2023-08-01T05:50:58;91098.47;;;20.65;90.50
5952;BME280;3001;42.622;23.194;2023-08-01T05:53:25;91095.53;;;20.74;89.65
5952;BME280;3001;42.622;23.194;2023-08-01T05:55:54;91098.00;;;20.56;90.20
5952;BME280;3001;42.622;23.194;2023-08-01T05:58:20;91105.56;;;20.61;89.30
5952;BME280;3001;42.622;23.194;2023-08-01T06:00:47;91102.28;;;20.71;88.61
5952;BME280;3001;42.622;23.194;2023-08-01T06:03:14;91098.66;;;20.90;86.69
5952;BME280;3001;42.622;23.194;2023-08-01T06:05:41;91093.84;;;20.99;88.30
5952;BME280;3001;42.622;23.194;2023-08-01T06:08:08;91091.03;;;20.81;87.56
5952;BME280;3001;42.622;23.194;2023-08-01T06:10:34;91096.16;;;20.60;86.63
5952;BME280;3001;42.622;23.194;2023-08-01T06:13:03;91091.78;;;20.82;86.10
5952;BME280;3001;42.622;23.194;2023-08-01T06:15:29;91096.47;;;20.99;86.24
5952;BME280;3001;42.622;23.194;2023-08-01T06:17:56;91093.31;;;20.83;86.80
5952;BME280;3001;42.622;23.194;2023-08-01T06:20:23;91093.72;;;20.85;86.38
5952;BME280;3001;42.622;23.194;2023-08-01T06:22:49;91101.19;;;20.76;83.75
5952;BME280;3001;42.622;23.194;2023-08-01T06:25:16;91084.97;;;20.77;83.37
5952;BME280;3001;42.622;23.194;2023-08-01T06:27:43;91091.13;;;20.92;84.22
5952;BME280;3001;42.622;23.194;2023-08-01T06:30:11;91085.94;;;21.06;84.59
5952;BME280;3001;42.622;23.194;2023-08-01T06:32:38;91093.34;;;21.43;80.70
5952;BME280;3001;42.622;23.194;2023-08-01T06:35:06;91089.19;;;21.42;81.17
5952;BME280;3001;42.622;23.194;2023-08-01T06:37:32;91086.97;;;21.48;82.56
5952;BME280;3001;42.622;23.194;2023-08-01T06:39:59;91088.91;;;21.61;82.62
5952;BME280;3001;42.622;23.194;2023-08-01T06:42:26;91090.91;;;21.78;84.64
5952;BME280;3001;42.622;23.194;2023-08-01T06:44:52;91086.03;;;21.91;82.86
5952;BME280;3001;42.622;23.194;2023-08-01T06:47:20;91091.75;;;22.14;82.74
5952;BME280;3001;42.622;23.194;2023-08-01T06:49:47;91083.81;;;22.14;81.15
5952;BME280;3001;42.622;23.194;2023-08-01T06:52:14;91088.38;;;22.20;79.65
5952;BME280;3001;42.622;23.194;2023-08-01T06:54:40;91088.72;;;22.12;80.50
5952;BME280;3001;42.622;23.194;2023-08-01T06:57:07;91091.03;;;22.27;80.97
5952;BME280;3001;42.622;23.194;2023-08-01T06:59:34;91099.31;;;22.19;78.99
5952;BME280;3001;42.622;23.194;2023-08-01T07:02:01;91095.16;;;22.18;81.27
5952;BME280;3001;42.622;23.194;2023-08-01T07:04:29;91092.50;;;22.25;79.58
5952;BME280;3001;42.622;23.194;2023-08-01T07:06:56;91090.63;;;22.22;77.66
5952;BME280;3001;42.622;23.194;2023-08-01T07:09:22;91094.72;;;22.02;80.86
5952;BME280;3001;42.622;23.194;2023-08-01T07:11:49;91081.16;;;22.14;79.93
5952;BME280;3001;42.622;23.194;2023-08-01T07:14:16;91096.69;;;22.36;78.66
5952;BME280;3001;42.622;23.194;2023-08-01T07:16:42;91043.38;;;22.17;78.95
5952;BME280;3001;42.622;23.194;2023-08-01T07:19:09;91074.81;;;22.46;77.80
5952;BME280;3001;42.622;23.194;2023-08-01T07:21:37;91079.75;;;22.69;77.08
5952;BME280;3001;42.622;23.194;2023-08-01T07:24:04;91089.22;;;22.70;74.87
5952;BME280;3001;42.622;23.194;2023-08-01T07:29:06;91076.31;;;22.99;76.04
5952;BME280;3001;42.622;23.194;2023-08-01T07:31:36;91080.88;;;23.02;75.63
5952;BME280;3001;42.622;23.194;2023-08-01T07:34:02;91078.59;;;23.22;72.64
5952;BME280;3001;42.622;23.194;2023-08-01T07:36:29;91083.50;;;23.23;74.88
5952;BME280;3001;42.622;23.194;2023-08-01T07:38:57;91080.09;;;23.33;74.59
5952;BME280;3001;42.622;23.194;2023-08-01T07:41:24;91087.28;;;23.36;73.41
5952;BME280;3001;42.622;23.194;2023-08-01T07:43:50;91084.56;;;23.54;71.73
5952;BME280;3001;42.622;23.194;2023-08-01T07:46:17;91085.72;;;23.56;72.79
5952;BME280;3001;42.622;23.194;2023-08-01T07:48:43;91084.59;;;23.43;73.89
5952;BME280;3001;42.622;23.194;2023-08-01T07:51:10;91092.56;;;23.47;73.72
5952;BME280;3001;42.622;23.194;2023-08-01T07:53:37;91091.03;;;23.56;72.93
5952;BME280;3001;42.622;23.194;2023-08-01T07:56:05;91090.94;;;23.84;71.81
5952;BME280;3001;42.622;23.194;2023-08-01T07:58:35;91088.25;;;23.98;69.26
5952;BME280;3001;42.622;23.194;2023-08-01T08:01:05;91090.78;;;24.23;68.42
5952;BME280;3001;42.622;23.194;2023-08-01T08:03:32;91076.81;;;24.08;68.69
5952;BME280;3001;42.622;23.194;2023-08-01T08:05:59;91079.34;;;24.33;69.63
5952;BME280;3001;42.622;23.194;2023-08-01T08:08:25;91084.56;;;24.47;69.36
5952;BME280;3001;42.622;23.194;2023-08-01T08:10:52;91073.19;;;24.53;68.15
5952;BME280;3001;42.622;23.194;2023-08-01T08:13:20;91080.56;;;24.79;65.79
5952;BME280;3001;42.622;23.194;2023-08-01T08:15:47;91082.81;;;24.84;65.77
5952;BME280;3001;42.622;23.194;2023-08-01T08:18:14;91076.66;;;24.94;66.09
5952;BME280;3001;42.622;23.194;2023-08-01T08:20:42;91074.78;;;24.91;64.22
5952;BME280;3001;42.622;23.194;2023-08-01T08:23:09;91068.09;;;25.23;65.12
5952;BME280;3001;42.622;23.194;2023-08-01T08:25:36;91068.84;;;25.20;67.44
5952;BME280;3001;42.622;23.194;2023-08-01T08:28:03;91064.28;;;25.17;65.97
5952;BME280;3001;42.622;23.194;2023-08-01T08:30:31;91064.16;;;25.35;64.67
5952;BME280;3001;42.622;23.194;2023-08-01T08:32:58;91060.53;;;25.52;63.30
5952;BME280;3001;42.622;23.194;2023-08-01T08:35:25;91063.53;;;25.57;61.40
5952;BME280;3001;42.622;23.194;2023-08-01T08:37:52;91058.44;;;25.70;62.07
5952;BME280;3001;42.622;23.194;2023-08-01T08:40:19;91058.50;;;25.66;61.47
5952;BME280;3001;42.622;23.194;2023-08-01T08:42:46;91045.38;;;25.82;61.20
5952;BME280;3001;42.622;23.194;2023-08-01T08:45:18;91055.28;;;25.82;61.67
5952;BME280;3001;42.622;23.194;2023-08-01T08:47:49;91047.69;;;25.84;59.39
5952;BME280;3001;42.622;23.194;2023-08-01T08:50:20;91051.19;;;26.07;59.42
5952;BME280;3001;42.622;23.194;2023-08-01T08:52:47;91048.84;;;26.39;61.68
5952;BME280;3001;42.622;23.194;2023-08-01T08:55:14;91056.72;;;26.50;60.83
5952;BME280;3001;42.622;23.194;2023-08-01T08:57:42;91055.66;;;26.70;60.25
5952;BME280;3001;42.622;23.194;2023-08-01T09:00:11;91047.59;;;26.73;61.54
5952;BME280;3001;42.622;23.194;2023-08-01T09:02:39;91056.72;;;26.99;59.84
5952;BME280;3001;42.622;23.194;2023-08-01T09:05:08;91048.00;;;26.98;59.58
5952;BME280;3001;42.622;23.194;2023-08-01T09:07:39;91038.84;;;27.22;58.24
5952;BME280;3001;42.622;23.194;2023-08-01T09:10:08;91044.19;;;27.22;57.37
5952;BME280;3001;42.622;23.194;2023-08-01T09:12:35;91041.22;;;27.17;57.81
5952;BME280;3001;42.622;23.194;2023-08-01T09:15:01;91041.84;;;27.24;56.61
5952;BME280;3001;42.622;23.194;2023-08-01T09:17:28;91039.16;;;27.47;56.58
5952;BME280;3001;42.622;23.194;2023-08-01T09:19:56;91041.56;;;27.61;54.29
5952;BME280;3001;42.622;23.194;2023-08-01T09:22:41;91036.84;;;27.69;52.91
5952;BME280;3001;42.622;23.194;2023-08-01T09:25:08;91036.41;;;27.74;54.02
5952;BME280;3001;42.622;23.194;2023-08-01T09:27:34;91039.38;;;27.95;53.86
5952;BME280;3001;42.622;23.194;2023-08-01T09:30:08;91040.94;;;28.12;51.56
5952;BME280;3001;42.622;23.194;2023-08-01T09:32:36;91045.75;;;28.40;48.69
5952;BME280;3001;42.622;23.194;2023-08-01T09:35:03;91036.22;;;28.39;50.72
5952;BME280;3001;42.622;23.194;2023-08-01T09:37:40;91029.94;;;28.46;52.11
5952;BME280;3001;42.622;23.194;2023-08-01T09:40:07;91029.16;;;28.29;50.41
5952;BME280;3001;42.622;23.194;2023-08-01T09:42:38;91036.63;;;28.38;50.03
5952;BME280;3001;42.622;23.194;2023-08-01T09:45:11;91030.53;;;28.37;47.88
5952;BME280;3001;42.622;23.194;2023-08-01T09:47:38;91030.28;;;28.32;48.41
5952;BME280;3001;42.622;23.194;2023-08-01T09:50:05;91032.31;;;28.24;45.55
5952;BME280;3001;42.622;23.194;2023-08-01T09:52:32;91027.59;;;28.32;44.29
5952;BME280;3001;42.622;23.194;2023-08-01T09:55:01;91026.22;;;28.43;45.42
5952;BME280;3001;42.622;23.194;2023-08-01T09:57:29;91020.19;;;28.39;44.52
5952;BME280;3001;42.622;23.194;2023-08-01T09:59:58;91012.19;;;28.39;47.68
5952;BME280;3001;42.622;23.194;2023-08-01T10:02:25;91012.44;;;28.60;48.27
5952;BME280;3001;42.622;23.194;2023-08-01T10:04:53;91003.91;;;28.65;48.41
5952;BME280;3001;42.622;23.194;2023-08-01T10:07:24;91002.81;;;28.79;47.52
5952;BME280;3001;42.622;23.194;2023-08-01T10:09:53;91014.56;;;29.01;42.19
5952;BME280;3001;42.622;23.194;2023-08-01T10:12:22;91012.69;;;29.14;41.82
5952;BME280;3001;42.622;23.194;2023-08-01T10:14:51;91009.34;;;29.26;42.60
5952;BME280;3001;42.622;23.194;2023-08-01T10:17:19;91004.72;;;29.42;40.31
5952;BME280;3001;42.622;23.194;2023-08-01T10:19:49;91007.34;;;29.46;39.96
5952;BME280;3001;42.622;23.194;2023-08-01T10:22:16;91001.47;;;29.51;38.91
5952;BME280;3001;42.622;23.194;2023-08-01T10:24:43;91015.00;;;29.44;37.31
5952;BME280;3001;42.622;23.194;2023-08-01T10:27:12;91000.28;;;29.36;39.58
5952;BME280;3001;42.622;23.194;2023-08-01T10:29:41;91003.63;;;29.40;38.69
5952;BME280;3001;42.622;23.194;2023-08-01T10:32:09;90993.94;;;29.30;40.80
5952;BME280;3001;42.622;23.194;2023-08-01T10:34:36;91001.19;;;29.45;40.75
5952;BME280;3001;42.622;23.194;2023-08-01T10:37:03;90997.94;;;29.54;42.36
5952;BME280;3001;42.622;23.194;2023-08-01T10:39:30;90986.28;;;29.60;42.62
5952;BME280;3001;42.622;23.194;2023-08-01T10:41:58;90987.78;;;29.61;39.78
5952;BME280;3001;42.622;23.194;2023-08-01T10:44:25;90986.19;;;29.64;38.09
5952;BME280;3001;42.622;23.194;2023-08-01T10:46:54;90982.38;;;29.77;41.42
5952;BME280;3001;42.622;23.194;2023-08-01T10:49:35;90984.75;;;29.88;39.15
5952;BME280;3001;42.622;23.194;2023-08-01T10:52:02;90982.50;;;29.99;39.91
5952;BME280;3001;42.622;23.194;2023-08-01T10:54:29;90988.91;;;30.05;39.25
5952;BME280;3001;42.622;23.194;2023-08-01T10:56:57;90976.50;;;29.95;37.83
5952;BME280;3001;42.622;23.194;2023-08-01T10:59:24;90975.78;;;29.94;38.30
5952;BME280;3001;42.622;23.194;2023-08-01T11:01:57;90970.56;;;30.03;41.09
5952;BME280;3001;42.622;23.194;2023-08-01T11:04:24;90957.38;;;30.09;39.99
5952;BME280;3001;42.622;23.194;2023-08-01T11:06:52;90943.78;;;30.28;42.50
5952;BME280;3001;42.622;23.194;2023-08-01T11:09:22;90953.75;;;30.28;39.94
5952;BME280;3001;42.622;23.194;2023-08-01T11:11:51;90945.72;;;30.40;39.71
5952;BME280;3001;42.622;23.194;2023-08-01T11:14:19;90950.44;;;30.48;38.66
5952;BME280;3001;42.622;23.194;2023-08-01T11:16:48;90951.06;;;30.52;38.09
5952;BME280;3001;42.622;23.194;2023-08-01T11:19:20;90952.03;;;30.71;38.30
5952;BME280;3001;42.622;23.194;2023-08-01T11:21:48;90942.63;;;30.66;38.05
5952;BME280;3001;42.622;23.194;2023-08-01T11:24:16;90939.69;;;30.73;40.08
5952;BME280;3001;42.622;23.194;2023-08-01T11:26:43;90935.91;;;30.83;38.93
5952;BME280;3001;42.622;23.194;2023-08-01T11:29:11;90933.75;;;30.91;34.49
5952;BME280;3001;42.622;23.194;2023-08-01T11:31:38;90930.50;;;31.08;36.20
5952;BME280;3001;42.622;23.194;2023-08-01T11:34:05;90937.38;;;31.09;34.89
5952;BME280;3001;42.622;23.194;2023-08-01T11:36:35;90940.28;;;31.15;33.31
5952;BME280;3001;42.622;23.194;2023-08-01T11:39:02;90942.84;;;31.18;33.07
5952;BME280;3001;42.622;23.194;2023-08-01T11:41:29;90935.59;;;31.28;32.30
5952;BME280;3001;42.622;23.194;2023-08-01T11:44:01;90929.13;;;31.38;32.70
5952;BME280;3001;42.622;23.194;2023-08-01T11:46:31;90932.50;;;31.51;33.70
5952;BME280;3001;42.622;23.194;2023-08-01T11:48:58;90932.88;;;31.62;35.01
5952;BME280;3001;42.622;23.194;2023-08-01T11:51:25;90924.16;;;31.70;35.56
5952;BME280;3001;42.622;23.194;2023-08-01T11:53:59;90935.53;;;31.74;35.81
5952;BME280;3001;42.622;23.194;2023-08-01T11:56:26;90934.47;;;31.72;31.94
5952;BME280;3001;42.622;23.194;2023-08-01T11:58:53;90920.28;;;31.71;34.71
5952;BME280;3001;42.622;23.194;2023-08-01T12:01:20;90921.84;;;31.81;34.17
5952;BME280;3001;42.622;23.194;2023-08-01T12:03:48;90929.91;;;31.81;30.89
5952;BME280;3001;42.622;23.194;2023-08-01T12:06:17;90919.03;;;31.85;31.68
5952;BME280;3001;42.622;23.194;2023-08-01T12:08:46;90924.09;;;31.83;32.69
5952;BME280;3001;42.622;23.194;2023-08-01T12:11:24;90920.53;;;31.86;33.28
5952;BME280;3001;42.622;23.194;2023-08-01T12:14:01;90911.16;;;31.90;33.06
5952;BME280;3001;42.622;23.194;2023-08-01T12:16:28;90906.22;;;31.89;33.58
5952;BME280;3001;42.622;23.194;2023-08-01T12:18:55;90909.50;;;31.93;33.25
5952;BME280;3001;42.622;23.194;2023-08-01T12:21:22;90907.06;;;32.07;30.84
5952;BME280;3001;42.622;23.194;2023-08-01T12:23:49;90907.19;;;32.04;30.21
5952;BME280;3001;42.622;23.194;2023-08-01T12:26:16;90907.13;;;31.95;30.81
5952;BME280;3001;42.622;23.194;2023-08-01T12:28:44;90915.06;;;31.98;30.78
5952;BME280;3001;42.622;23.194;2023-08-01T12:31:15;90910.75;;;32.01;30.33
5952;BME280;3001;42.622;23.194;2023-08-01T12:33:46;90901.81;;;32.04;30.04
5952;BME280;3001;42.622;23.194;2023-08-01T12:36:15;90899.84;;;32.04;30.93
5952;BME280;3001;42.622;23.194;2023-08-01T12:38:41;90892.16;;;32.15;32.67
5952;BME280;3001;42.622;23.194;2023-08-01T12:41:08;90889.50;;;32.24;32.63
5952;BME280;3001;42.622;23.194;2023-08-01T12:43:35;90894.63;;;32.31;30.92
5952;BME280;3001;42.622;23.194;2023-08-01T12:46:03;90895.41;;;32.41;32.02
5952;BME280;3001;42.622;23.194;2023-08-01T12:48:30;90903.06;;;32.51;30.65
5952;BME280;3001;42.622;23.194;2023-08-01T12:50:57;90893.22;;;32.48;31.17
5952;BME280;3001;42.622;23.194;2023-08-01T12:53:24;90891.13;;;32.52;31.01
5952;BME280;3001;42.622;23.194;2023-08-01T12:55:51;90887.72;;;32.60;32.40
5952;BME280;3001;42.622;23.194;2023-08-01T12:58:18;90883.78;;;32.52;29.42
5952;BME280;3001;42.622;23.194;2023-08-01T13:00:45;90888.38;;;32.43;29.34
5952;BME280;3001;42.622;23.194;2023-08-01T13:03:13;90875.13;;;32.48;31.19
5952;BME280;3001;42.622;23.194;2023-08-01T13:05:41;90859.09;;;32.36;30.88
5952;BME280;3001;42.622;23.194;2023-08-01T13:08:08;90868.41;;;32.53;31.77
5952;BME280;3001;42.622;23.194;2023-08-01T13:10:36;90875.88;;;32.58;29.18
5952;BME280;3001;42.622;23.194;2023-08-01T13:13:03;90869.47;;;32.64;29.83